createdAt,value
2023-01-05T00:03:34.909Z,99380.50
2023-01-05T00:06:03.122Z,99388.44
2023-01-05T00:08:34.769Z,99388.97
2023-01-05T00:11:34.906Z,99389.63
2023-01-05T00:14:20.904Z,99385.75
2023-01-05T00:17:06.935Z,99385.13
2023-01-05T00:19:52.711Z,99362.13
2023-01-05T00:22:34.649Z,99352.41
2023-01-05T00:25:12.952Z,99354.88
2023-01-05T00:27:41.700Z,99354.75
2023-01-05T00:30:10.820Z,99353.09
2023-01-05T00:35:15.752Z,99342.94
2023-01-05T00:37:43.996Z,99350.19
2023-01-05T00:40:13.623Z,99339.41
2023-01-05T00:42:40.666Z,99357.16
2023-01-05T00:45:09.669Z,99368.53
2023-01-05T00:47:36.646Z,99352.88
2023-01-05T00:50:04.943Z,99318.13
2023-01-05T00:52:31.894Z,99321.47
2023-01-05T00:54:58.725Z,99350.09
2023-01-05T00:57:25.723Z,99331.94
2023-01-05T00:59:52.580Z,99336.72
2023-01-05T01:02:19.487Z,99338.13
2023-01-05T01:04:46.493Z,99303.69
2023-01-05T01:07:13.315Z,99287.34
2023-01-05T01:09:41.542Z,99302.16
2023-01-05T01:12:08.408Z,99306.16
2023-01-05T01:14:36.789Z,99324.78
2023-01-05T01:17:03.676Z,99313.91
2023-01-05T01:19:30.604Z,99324.78
2023-01-05T01:21:57.418Z,99322.84
2023-01-05T01:24:27.695Z,99306.78
2023-01-05T01:26:55.773Z,99309.88
2023-01-05T01:29:23.977Z,99300.88
2023-01-05T01:31:53.244Z,99289.03
2023-01-05T01:34:20.517Z,99285.91
2023-01-05T01:36:47.429Z,99271.25
2023-01-05T01:39:14.999Z,99234.00
2023-01-05T01:41:42.634Z,99263.75
2023-01-05T01:44:46.808Z,99252.19
2023-01-05T01:47:22.244Z,99234.31
2023-01-05T01:49:50.330Z,99224.44
2023-01-05T01:52:17.762Z,99223.13
2023-01-05T01:54:45.763Z,99233.16
2023-01-05T01:57:13.987Z,99193.25
2023-01-05T01:59:41.498Z,99204.22
2023-01-05T02:02:09.244Z,99216.94
2023-01-05T02:04:38.149Z,99209.13
2023-01-05T02:07:08.280Z,99201.22
2023-01-05T02:09:35.384Z,99167.34
2023-01-05T02:12:35.900Z,99211.72
2023-01-05T02:15:29.759Z,99203.97
2023-01-05T02:18:20.632Z,99210.72
2023-01-05T02:20:48.157Z,99232.69
2023-01-05T02:23:34.173Z,99233.25
2023-01-05T02:26:19.603Z,99228.41
2023-01-05T02:29:17.643Z,99222.88
2023-01-05T02:31:54.005Z,99192.91
2023-01-05T02:34:34.928Z,99232.66
2023-01-05T02:37:17.543Z,99219.97
2023-01-05T02:39:53.402Z,99219.97
2023-01-05T02:42:24.953Z,99224.16
2023-01-05T02:44:51.987Z,99203.78
2023-01-05T02:47:25.047Z,99198.97
2023-01-05T02:49:57.915Z,99198.41
2023-01-05T02:52:26.530Z,99185.63
2023-01-05T02:55:05.432Z,99150.56
2023-01-05T02:57:47.691Z,99169.91
2023-01-05T03:00:22.389Z,99151.63
2023-01-05T03:02:54.317Z,99159.13
2023-01-05T03:05:38.825Z,99159.59
2023-01-05T03:08:11.297Z,99146.00
2023-01-05T03:11:22.280Z,99126.09
2023-01-05T03:13:54.825Z,99142.63
2023-01-05T03:16:39.915Z,99107.47
2023-01-05T03:19:30.699Z,99141.19
2023-01-05T03:22:18.914Z,99138.28
2023-01-05T03:25:04.784Z,99110.56
2023-01-05T03:27:51.061Z,99145.56
2023-01-05T03:30:37.762Z,99085.00
2023-01-05T03:33:40.765Z,99108.63
2023-01-05T03:36:09.356Z,99109.97
2023-01-05T03:38:43.403Z,99120.06
2023-01-05T03:41:12.918Z,99067.19
2023-01-05T03:43:40.704Z,99105.19
2023-01-05T03:46:14.861Z,99106.94
2023-01-05T03:48:42.068Z,99077.38
2023-01-05T03:51:09.287Z,99086.91
2023-01-05T03:53:36.174Z,99110.94
2023-01-05T03:56:03.082Z,99104.34
2023-01-05T03:58:29.881Z,99096.53
2023-01-05T04:00:56.803Z,99075.97
2023-01-05T04:03:29.446Z,99079.06
2023-01-05T04:05:58.405Z,99092.00
2023-01-05T04:08:25.224Z,99094.16
2023-01-05T04:10:53.699Z,99093.84
2023-01-05T04:13:21.076Z,99050.16
2023-01-05T04:15:48.195Z,99052.56
2023-01-05T04:18:15.200Z,99083.56
2023-01-05T04:20:42.333Z,99086.41
2023-01-05T04:23:09.129Z,99046.44
2023-01-05T04:25:35.978Z,99097.41
2023-01-05T04:28:02.733Z,99026.31
2023-01-05T04:30:29.785Z,99054.78
2023-01-05T04:32:56.720Z,99085.81
2023-01-05T04:35:23.579Z,99084.31
2023-01-05T04:37:50.323Z,99033.91
2023-01-05T04:40:17.140Z,99083.75
2023-01-05T04:42:44.036Z,99044.25
2023-01-05T04:45:11.273Z,99063.66
2023-01-05T04:47:38.203Z,99059.47
2023-01-05T04:50:05.637Z,99052.34
2023-01-05T04:52:32.503Z,99066.44
2023-01-05T04:54:59.361Z,99081.88
2023-01-05T04:57:26.169Z,99052.00
2023-01-05T04:59:53.108Z,99039.06
2023-01-05T05:02:20.151Z,99069.91
2023-01-05T05:04:47.801Z,99055.78
2023-01-05T05:07:14.814Z,99043.09
2023-01-05T05:09:41.611Z,99061.94
2023-01-05T05:12:08.511Z,99028.19
2023-01-05T05:14:35.430Z,99058.41
2023-01-05T05:17:02.264Z,99024.38
2023-01-05T05:19:29.099Z,99063.81
2023-01-05T05:21:55.933Z,99054.91
2023-01-05T05:24:22.855Z,99003.78
2023-01-05T05:26:49.748Z,99013.56
2023-01-05T05:29:16.648Z,99030.63
2023-01-05T05:31:43.629Z,99046.88
2023-01-05T05:34:10.455Z,99006.97
2023-01-05T05:36:38.226Z,99046.25
2023-01-05T05:39:05.226Z,99032.47
2023-01-05T05:41:32.132Z,99012.72
2023-01-05T05:44:02.923Z,99024.00
2023-01-05T05:46:31.491Z,99022.47
2023-01-05T05:48:59.102Z,99010.59
2023-01-05T05:51:26.740Z,98976.69
2023-01-05T05:53:54.047Z,99015.72
2023-01-05T05:56:20.934Z,99030.41
2023-01-05T05:58:47.811Z,99039.59
2023-01-05T06:01:14.762Z,99026.19
2023-01-05T06:03:41.883Z,99004.53
2023-01-05T06:06:08.741Z,99006.94
2023-01-05T06:08:35.624Z,99044.19
2023-01-05T06:11:08.472Z,99033.91
2023-01-05T06:13:35.438Z,99045.91
2023-01-05T06:16:02.397Z,99055.63
2023-01-05T06:18:29.391Z,99061.31
2023-01-05T06:21:01.342Z,99055.00
2023-01-05T06:23:28.617Z,99044.75
2023-01-05T06:25:55.596Z,99054.16
2023-01-05T06:28:22.477Z,99047.72
2023-01-05T06:30:49.312Z,99062.22
2023-01-05T06:33:16.079Z,99065.06
2023-01-05T06:35:42.965Z,99053.78
2023-01-05T06:38:11.735Z,99013.03
2023-01-05T06:40:44.630Z,99032.38
2023-01-05T06:43:14.505Z,99048.56
2023-01-05T06:45:41.510Z,99072.91
2023-01-05T06:48:08.584Z,99069.28
2023-01-05T06:50:35.454Z,99062.66
2023-01-05T06:53:02.333Z,99061.63
2023-01-05T06:55:29.450Z,99084.50
2023-01-05T06:58:00.768Z,99070.41
2023-01-05T07:00:29.165Z,99072.63
2023-01-05T07:02:56.141Z,99059.84
2023-01-05T07:05:24.760Z,99072.56
2023-01-05T07:07:51.743Z,99095.72
2023-01-05T07:10:18.579Z,99083.06
2023-01-05T07:12:45.398Z,99076.59
2023-01-05T07:15:12.314Z,99064.03
2023-01-05T07:17:39.114Z,99063.91
2023-01-05T07:20:08.033Z,99075.84
2023-01-05T07:22:34.971Z,99093.59
2023-01-05T07:25:01.826Z,99090.72
2023-01-05T07:27:28.741Z,99097.28
2023-01-05T07:29:55.615Z,99087.28
2023-01-05T07:32:22.341Z,99095.81
2023-01-05T07:34:55.519Z,99105.06
2023-01-05T07:37:25.308Z,99090.72
2023-01-05T07:39:52.656Z,99084.38
2023-01-05T07:42:19.802Z,99092.41
2023-01-05T07:44:46.630Z,99100.84
2023-01-05T07:47:13.362Z,99098.72
2023-01-05T07:49:40.129Z,99102.75
2023-01-05T07:52:08.906Z,99091.66
2023-01-05T07:54:35.675Z,99088.28
2023-01-05T07:57:02.553Z,99092.56
2023-01-05T07:59:29.289Z,99080.28
2023-01-05T08:01:56.130Z,99074.94
2023-01-05T08:04:23.012Z,99082.06
2023-01-05T08:06:50.123Z,99107.06
2023-01-05T08:09:35.535Z,99099.16
2023-01-05T08:12:02.301Z,99106.22
2023-01-05T08:14:29.043Z,99123.56
2023-01-05T08:16:55.792Z,99129.56
2023-01-05T08:19:22.594Z,99133.78
2023-01-05T08:21:49.325Z,99126.91
2023-01-05T08:24:16.112Z,99144.09
2023-01-05T08:26:43.226Z,99137.69
2023-01-05T08:29:10.122Z,99153.69
2023-01-05T08:31:39.921Z,99156.06
2023-01-05T08:34:06.885Z,99163.19
2023-01-05T08:36:34.440Z,99161.13
2023-01-05T08:39:04.259Z,99155.84
2023-01-05T08:41:33.249Z,99159.22
2023-01-05T08:44:02.504Z,99155.03
2023-01-05T08:46:35.327Z,99168.50
2023-01-05T08:49:04.272Z,99157.91
2023-01-05T08:51:32.176Z,99166.91
2023-01-05T08:53:59.498Z,99164.22
2023-01-05T08:56:38.266Z,99170.38
2023-01-05T08:59:05.911Z,99182.50
2023-01-05T09:01:32.963Z,99170.25
2023-01-05T09:03:59.839Z,99155.69
2023-01-05T09:06:26.684Z,99170.78
2023-01-05T09:08:55.062Z,99172.63
2023-01-05T09:11:26.011Z,99178.19
2023-01-05T09:14:00.123Z,99180.78
2023-01-05T09:19:16.770Z,99196.50
2023-01-05T09:21:44.700Z,99186.91
2023-01-05T09:24:13.342Z,99174.91
2023-01-05T09:26:43.407Z,99196.16
2023-01-05T09:29:10.880Z,99206.50
2023-01-05T09:31:37.838Z,99188.97
2023-01-05T09:34:04.693Z,99185.59
2023-01-05T09:36:32.496Z,99183.19
2023-01-05T09:39:00.574Z,99188.56
2023-01-05T09:41:33.388Z,99196.81
2023-01-05T09:44:06.854Z,99200.03
2023-01-05T09:46:41.842Z,99209.50
2023-01-05T09:49:15.008Z,99202.41
2023-01-05T09:51:42.965Z,99217.44
2023-01-05T09:54:18.079Z,99238.75
2023-01-05T09:59:41.235Z,99215.25
2023-01-05T10:02:34.001Z,99214.81
2023-01-05T10:05:02.788Z,99198.91
2023-01-05T10:07:49.366Z,99202.28
2023-01-05T10:10:43.903Z,99176.28
2023-01-05T10:13:26.443Z,99171.03
2023-01-05T10:15:55.131Z,99174.69
2023-01-05T10:18:27.228Z,99181.66
2023-01-05T10:20:59.901Z,99171.28
2023-01-05T10:23:52.558Z,99180.03
2023-01-05T10:26:25.033Z,99168.47
2023-01-05T10:29:00.820Z,99205.81
2023-01-05T10:31:47.267Z,99199.34
2023-01-05T10:34:36.258Z,99188.81
2023-01-05T10:37:09.902Z,99213.81
2023-01-05T10:40:00.965Z,99196.03
2023-01-05T10:42:55.573Z,99195.13
2023-01-05T10:45:25.954Z,99206.09
2023-01-05T10:47:53.234Z,99216.50
2023-01-05T10:50:43.816Z,99194.66
2023-01-05T10:53:15.297Z,99218.44
2023-01-05T10:55:51.916Z,99219.97
2023-01-05T10:58:26.838Z,99196.28
2023-01-05T11:01:00.489Z,99209.44
2023-01-05T11:06:37.715Z,99230.03
2023-01-05T11:09:22.049Z,99211.53
2023-01-05T11:12:22.899Z,99210.31
2023-01-05T11:14:58.773Z,99204.78
2023-01-05T11:17:29.284Z,99222.03
2023-01-05T11:19:57.726Z,99217.81
2023-01-05T11:22:30.448Z,99216.78
2023-01-05T11:25:33.346Z,99210.78
2023-01-05T11:28:06.949Z,99211.16
2023-01-05T11:30:34.212Z,99213.41
2023-01-05T11:33:01.963Z,99213.63
2023-01-05T11:35:33.597Z,99204.59
2023-01-05T11:38:00.821Z,99216.59
2023-01-05T11:40:34.510Z,99207.31
2023-01-05T11:43:09.698Z,99187.25
2023-01-05T11:45:49.458Z,99200.31
2023-01-05T11:48:21.107Z,99177.91
2023-01-05T11:50:56.650Z,99201.78
2023-01-05T11:53:35.273Z,99201.13
2023-01-05T11:56:07.800Z,99200.13
2023-01-05T11:58:43.373Z,99202.63
2023-01-05T12:01:22.063Z,99185.88
2023-01-05T12:04:31.096Z,99225.66
2023-01-05T12:07:10.057Z,99206.94
2023-01-05T12:09:39.724Z,99210.75
2023-01-05T12:12:13.296Z,99198.28
2023-01-05T12:14:49.233Z,99210.19
2023-01-05T12:17:20.193Z,99201.50
2023-01-05T12:19:52.868Z,99211.94
2023-01-05T12:22:34.577Z,99215.84
2023-01-05T12:25:20.135Z,99210.81
2023-01-05T12:28:07.506Z,99212.06
2023-01-05T12:34:05.102Z,99232.41
2023-01-05T12:36:39.217Z,99238.19
2023-01-05T12:39:20.878Z,99237.31
2023-01-05T12:41:59.701Z,99239.78
2023-01-05T12:44:52.165Z,99240.56
2023-01-05T12:47:21.848Z,99251.78
2023-01-05T12:50:02.340Z,99240.63
2023-01-05T12:52:36.728Z,99257.47
2023-01-05T12:55:18.262Z,99246.47
2023-01-05T12:58:10.528Z,99257.63
2023-01-05T13:00:42.574Z,99259.69
2023-01-05T13:03:27.420Z,99273.91
2023-01-05T13:06:11.412Z,99292.66
2023-01-05T13:08:59.829Z,99294.03
2023-01-05T13:11:43.361Z,99291.06
2023-01-05T13:14:20.672Z,99313.41
2023-01-05T13:16:59.317Z,99298.72
2023-01-05T13:19:31.457Z,99312.97
2023-01-05T13:22:01.783Z,99305.16
2023-01-05T13:24:35.729Z,99310.59
2023-01-05T13:27:03.386Z,99319.56
2023-01-05T13:29:41.853Z,99328.56
2023-01-05T13:32:33.530Z,99316.47
2023-01-05T13:35:04.402Z,99329.63
2023-01-05T13:37:54.230Z,99341.66
2023-01-05T13:40:24.678Z,99345.59
2023-01-05T13:43:12.771Z,99341.66
2023-01-05T13:46:16.742Z,99338.38
2023-01-05T13:49:03.277Z,99336.88
2023-01-05T13:51:39.814Z,99339.72
2023-01-05T13:54:43.669Z,99335.63
2023-01-05T13:57:22.534Z,99334.31
2023-01-05T14:00:04.043Z,99327.25
2023-01-05T14:02:39.043Z,99346.38
2023-01-05T14:05:30.579Z,99358.97
2023-01-05T14:08:00.488Z,99358.75
2023-01-05T14:10:30.300Z,99374.22
2023-01-05T14:12:57.561Z,99371.94
2023-01-05T14:15:38.327Z,99383.13
2023-01-05T14:18:07.100Z,99376.47
2023-01-05T14:20:47.189Z,99380.16
2023-01-05T14:23:22.995Z,99387.81
2023-01-05T14:25:58.373Z,99384.91
2023-01-05T14:28:31.278Z,99390.81
2023-01-05T14:31:19.294Z,99401.00
2023-01-05T14:33:52.682Z,99398.63
2023-01-05T14:36:36.911Z,99398.63
2023-01-05T14:39:07.203Z,99403.88
2023-01-05T14:41:34.610Z,99404.78
2023-01-05T14:44:26.268Z,99412.38
2023-01-05T14:46:55.836Z,99428.09
2023-01-05T14:49:25.377Z,99431.63
2023-01-05T14:51:57.923Z,99430.03
2023-01-05T14:55:05.001Z,99427.91
2023-01-05T14:57:48.933Z,99422.97
2023-01-05T15:00:29.039Z,99410.16
2023-01-05T15:03:21.187Z,99419.91
2023-01-05T15:05:58.203Z,99433.91
2023-01-05T15:08:58.217Z,99436.31
2023-01-05T15:11:24.793Z,99438.72
2023-01-05T15:14:37.087Z,99442.53
2023-01-05T15:17:06.735Z,99444.50
2023-01-05T15:20:06.674Z,99441.25
2023-01-05T15:22:57.584Z,99444.59
2023-01-05T15:28:54.368Z,99452.75
2023-01-05T15:31:42.369Z,99445.31
2023-01-05T15:34:28.058Z,99423.97
2023-01-05T15:37:10.489Z,99435.16
2023-01-05T15:39:46.358Z,99435.25
2023-01-05T15:42:18.865Z,99439.22
2023-01-05T15:44:48.863Z,99436.72
2023-01-05T15:47:17.792Z,99443.16
2023-01-05T15:49:46.140Z,99446.69
2023-01-05T15:52:34.256Z,99441.75
2023-01-05T15:55:14.404Z,99438.06
2023-01-05T15:57:43.073Z,99448.41
2023-01-05T16:00:32.465Z,99448.94
2023-01-05T16:03:00.057Z,99441.75
2023-01-05T16:05:39.028Z,99442.47
2023-01-05T16:08:13.923Z,99440.19
2023-01-05T16:10:53.087Z,99442.47
2023-01-05T16:13:44.437Z,99442.66
2023-01-05T16:16:54.180Z,99463.13
2023-01-05T16:19:17.916Z,99468.50
2023-01-05T16:22:11.183Z,99462.22
2023-01-05T16:25:06.572Z,99457.28
2023-01-05T16:27:40.657Z,99469.00
2023-01-05T16:30:39.276Z,99475.63
2023-01-05T16:33:11.989Z,99479.25
2023-01-05T16:35:46.292Z,99477.84
2023-01-05T16:38:28.274Z,99467.56
2023-01-05T16:40:58.582Z,99487.47
2023-01-05T16:43:35.292Z,99481.06
2023-01-05T16:46:20.965Z,99507.00
2023-01-05T16:49:04.079Z,99505.06
2023-01-05T16:51:35.974Z,99501.28
2023-01-05T16:54:24.668Z,99512.97
2023-01-05T16:56:59.385Z,99508.72
2023-01-05T16:59:50.378Z,99511.53
2023-01-05T17:02:45.970Z,99522.75
2023-01-05T17:05:19.448Z,99515.16
2023-01-05T17:07:50.194Z,99521.97
2023-01-05T17:10:25.871Z,99532.81
2023-01-05T17:12:58.127Z,99527.00
2023-01-05T17:15:27.812Z,99518.50
2023-01-05T17:17:56.676Z,99504.56
2023-01-05T17:20:26.636Z,99518.31
2023-01-05T17:22:55.783Z,99525.31
2023-01-05T17:25:24.329Z,99530.41
2023-01-05T17:27:51.273Z,99532.63
2023-01-05T17:30:22.661Z,99532.28
2023-01-05T17:32:49.489Z,99516.56
2023-01-05T17:35:18.684Z,99545.38
2023-01-05T17:37:47.122Z,99542.38
2023-01-05T17:40:20.371Z,99550.31
2023-01-05T17:42:48.219Z,99559.47
2023-01-05T17:45:18.640Z,99576.59
2023-01-05T17:47:46.119Z,99564.69
2023-01-05T17:50:22.175Z,99557.13
2023-01-05T17:52:49.122Z,99552.31
2023-01-05T17:55:16.743Z,99551.09
2023-01-05T17:57:43.665Z,99560.53
2023-01-05T18:00:14.001Z,99533.59
2023-01-05T18:02:41.865Z,99562.59
2023-01-05T18:05:10.991Z,99569.59
2023-01-05T18:07:39.084Z,99566.78
2023-01-05T18:15:09.595Z,99593.34
2023-01-05T18:20:09.832Z,99582.31
2023-01-05T18:22:38.766Z,99582.09
2023-01-05T18:27:38.617Z,99586.56
2023-01-05T18:30:06.828Z,99574.81
2023-01-05T18:32:34.002Z,99587.25
2023-01-05T18:35:04.307Z,99600.63
2023-01-05T18:37:34.740Z,99577.38
2023-01-05T18:40:02.405Z,99609.69
2023-01-05T18:42:29.359Z,99573.97
2023-01-05T18:44:56.868Z,99600.81
2023-01-05T18:47:23.810Z,99595.13
2023-01-05T18:49:53.486Z,99602.56
2023-01-05T18:52:20.427Z,99619.91
2023-01-05T18:54:47.256Z,99617.97
2023-01-05T18:57:14.963Z,99627.59
2023-01-05T18:59:42.489Z,99616.28
2023-01-05T19:02:14.765Z,99625.03
2023-01-05T19:04:41.707Z,99610.06
2023-01-05T19:07:09.510Z,99613.81
2023-01-05T19:09:36.880Z,99623.31
2023-01-05T19:12:04.081Z,99620.66
2023-01-05T19:14:31.198Z,99611.88
2023-01-05T19:16:58.276Z,99616.41
2023-01-05T19:19:25.315Z,99608.84
2023-01-05T19:21:52.506Z,99626.50
2023-01-05T19:24:24.833Z,99641.91
2023-01-05T19:26:52.854Z,99637.88
2023-01-05T19:29:21.001Z,99611.44
2023-01-05T19:31:50.785Z,99618.59
2023-01-05T19:34:19.933Z,99620.66
2023-01-05T19:36:47.505Z,99626.84
2023-01-05T19:39:17.245Z,99639.84
2023-01-05T19:41:46.807Z,99642.78
2023-01-05T19:44:17.093Z,99650.94
2023-01-05T19:46:44.948Z,99651.41
2023-01-05T19:49:18.495Z,99646.56
2023-01-05T19:51:46.266Z,99662.09
2023-01-05T19:54:14.641Z,99664.53
2023-01-05T19:56:42.777Z,99669.63
2023-01-05T19:59:22.405Z,99677.41
2023-01-05T20:01:49.820Z,99668.53
2023-01-05T20:04:16.974Z,99677.41
2023-01-05T20:06:45.464Z,99672.91
2023-01-05T20:09:16.267Z,99670.44
2023-01-05T20:11:46.589Z,99669.59
2023-01-05T20:14:30.972Z,99677.75
2023-01-05T20:17:06.366Z,99678.97
2023-01-05T20:19:34.670Z,99672.91
2023-01-05T20:22:03.760Z,99693.72
2023-01-05T20:24:36.318Z,99695.91
2023-01-05T20:27:09.313Z,99693.47
2023-01-05T20:29:36.946Z,99683.75
2023-01-05T20:32:11.059Z,99708.91
2023-01-05T20:34:39.829Z,99705.38
2023-01-05T20:37:08.992Z,99711.47
2023-01-05T20:39:37.879Z,99704.91
2023-01-05T20:42:05.295Z,99714.03
2023-01-05T20:44:36.673Z,99713.41
2023-01-05T20:47:04.381Z,99723.63
2023-01-05T20:49:32.232Z,99715.84
2023-01-05T20:51:59.305Z,99695.78
2023-01-05T20:54:26.715Z,99721.56
2023-01-05T20:56:53.855Z,99717.69
2023-01-05T20:59:23.609Z,99713.66
2023-01-05T21:01:51.511Z,99727.13
2023-01-05T21:04:19.180Z,99731.50
2023-01-05T21:06:46.343Z,99723.34
2023-01-05T21:09:13.403Z,99715.81
2023-01-05T21:11:41.068Z,99744.47
2023-01-05T21:14:09.239Z,99738.75
2023-01-05T21:16:39.802Z,99749.31
2023-01-05T21:19:08.965Z,99732.47
2023-01-05T21:21:36.032Z,99753.75
2023-01-05T21:24:02.909Z,99747.88
2023-01-05T21:26:29.863Z,99745.97
2023-01-05T21:28:56.658Z,99752.75
2023-01-05T21:31:25.318Z,99744.53
2023-01-05T21:33:53.275Z,99729.88
2023-01-05T21:36:28.850Z,99751.72
2023-01-05T21:39:03.712Z,99762.06
2023-01-05T21:41:53.662Z,99752.09
2023-01-05T21:44:21.802Z,99764.63
2023-01-05T21:46:49.781Z,99752.38
2023-01-05T21:49:17.561Z,99766.88
2023-01-05T21:52:02.756Z,99768.09
2023-01-05T21:54:48.215Z,99772.91
2023-01-05T21:57:15.242Z,99779.75
2023-01-05T21:59:42.515Z,99778.34
2023-01-05T22:02:09.721Z,99779.94
2023-01-05T22:04:36.652Z,99790.56
2023-01-05T22:07:07.324Z,99786.19
2023-01-05T22:09:35.109Z,99786.56
2023-01-05T22:12:02.823Z,99790.38
2023-01-05T22:14:29.657Z,99786.47
2023-01-05T22:16:56.438Z,99778.22
2023-01-05T22:19:24.263Z,99778.34
2023-01-05T22:21:51.099Z,99770.44
2023-01-05T22:24:18.099Z,99775.75
2023-01-05T22:26:44.887Z,99776.72
2023-01-05T22:29:11.821Z,99766.75
2023-01-05T22:31:38.685Z,99775.28
2023-01-05T22:34:05.533Z,99778.69
2023-01-05T22:36:32.486Z,99788.53
2023-01-05T22:38:59.322Z,99782.72
2023-01-05T22:41:30.106Z,99788.69
2023-01-05T22:43:57.583Z,99797.19
2023-01-05T22:46:27.579Z,99774.00
2023-01-05T22:48:54.828Z,99794.94
2023-01-05T22:51:23.793Z,99797.09
2023-01-05T22:53:51.266Z,99785.47
2023-01-05T22:56:20.228Z,99771.81
2023-01-05T22:58:47.403Z,99778.50
2023-01-05T23:01:16.190Z,99800.28
2023-01-05T23:03:43.102Z,99796.00
2023-01-05T23:06:10.031Z,99805.75
2023-01-05T23:08:38.288Z,99798.81
2023-01-05T23:11:10.822Z,99813.66
2023-01-05T23:13:38.374Z,99809.59
2023-01-05T23:16:06.407Z,99808.13
2023-01-05T23:18:35.416Z,99801.78
2023-01-05T23:21:05.262Z,99804.25
2023-01-05T23:23:32.604Z,99809.81
2023-01-05T23:26:00.079Z,99803.13
2023-01-05T23:28:28.512Z,99800.38
2023-01-05T23:30:56.807Z,99802.09
2023-01-05T23:33:25.742Z,99804.13
2023-01-05T23:35:54.078Z,99804.09
2023-01-05T23:38:21.885Z,99804.97
2023-01-05T23:40:51.000Z,99807.53
2023-01-05T23:43:19.747Z,99793.38
2023-01-05T23:45:47.463Z,99791.47
2023-01-05T23:48:14.852Z,99782.22
2023-01-05T23:50:43.843Z,99803.38
2023-01-05T23:53:11.395Z,99798.97
2023-01-05T23:55:39.485Z,99796.13
2023-01-05T23:58:06.648Z,99798.41
